CheckWX is a tool to help pilots better visualize weather data.  It is not intended as a substitute for an official pre-flight weather briefing.

10:17:25 UTC

CZVL TAF
Edmonton / Villeneuve Airport
Edmonton, Canada
TAF CZVL 260538Z 2606/2618 30005KT P6SM SCT030 SCT080 BKN220 FM260900 22005KT P6SM SCT060 BKN090 PROB40 2609/2614 21/2SM BR SCT006 SCT060 SCT090 FM261400 28006KT P6SM SCT030 SCT080 FM261700 VRB03KT P6SM BKN040 RMK FCST BASED ON AUTO OBS. NXT FCST BY 261200Z

Jun-26@
06:00 UTC

Jun-26 @ 06:00 UTC

Jun-26@
09:00 UTC

Jun-26 @ 09:00 UTC

TAF CZVL 260538Z 2606/2618 30005KT P6SM SCT030 SCT080 BKN220

Expired

Wind
  • 300° at 5 KTS
Cloud Levels
  • Scattered at 3,000' AGL
  • Scattered at 8,000' AGL
  • Broken at 22,000' AGL

Jun-26@
09:00 UTC

Jun-26 @ 09:00 UTC

Jun-26@
14:00 UTC

Jun-26 @ 14:00 UTC

FM260900 22005KT P6SM SCT060 BKN090

From

From Standard forecast or significant change

Wind
  • 220° at 5 KTS
Cloud Levels
  • Scattered at 6,000' AGL
  • Broken at 9,000' AGL

Jun-26@
09:00 UTC

Jun-26 @ 09:00 UTC

Jun-26@
14:00 UTC

Jun-26 @ 14:00 UTC

PROB40 2609/2614 21/2SM BR SCT006 SCT060 SCT090

Probable - 40% Likelihood

Probable - 40% Likelihood during this time.

Conditions
Mist
Cloud Levels
  • Scattered at 600' AGL
  • Scattered at 6,000' AGL
  • Scattered at 9,000' AGL

Jun-26@
14:00 UTC

Jun-26 @ 14:00 UTC

Jun-26@
17:00 UTC

Jun-26 @ 17:00 UTC

FM261400 28006KT P6SM SCT030 SCT080

From

From Standard forecast or significant change

Wind
  • 280° at 6 KTS
Cloud Levels
  • Scattered at 3,000' AGL
  • Scattered at 8,000' AGL

Jun-26@
17:00 UTC

Jun-26 @ 17:00 UTC

Jun-26@
18:00 UTC

Jun-26 @ 18:00 UTC

FM261700 VRB03KT P6SM BKN040 RMK FCST BASED ON AUTO OBS. NXT FCST BY 261200Z

From

From Standard forecast or significant change

Wind
  • Variable at 3 KTS
Cloud Levels
  • Broken at 4,000' AGL